sensor_id;sensor_type;location;lat;lon;timestamp;P1;durP1;ratioP1;P2;durP2;ratioP2
11348;SDS011;5729;43.570;27.826;2022-08-19T00:02:24;11.82;;;8.88;;
11348;SDS011;5729;43.570;27.826;2022-08-19T00:04:50;12.57;;;8.95;;
11348;SDS011;5729;43.570;27.826;2022-08-19T00:07:20;13.02;;;9.27;;
11348;SDS011;5729;43.570;27.826;2022-08-19T00:09:46;12.73;;;8.75;;
11348;SDS011;5729;43.570;27.826;2022-08-19T00:12:12;9.18;;;8.27;;
11348;SDS011;5729;43.570;27.826;2022-08-19T00:14:38;16.75;;;9.63;;
11348;SDS011;5729;43.570;27.826;2022-08-19T00:17:04;9.05;;;8.13;;
11348;SDS011;5729;43.570;27.826;2022-08-19T00:19:31;9.57;;;8.23;;
11348;SDS011;5729;43.570;27.826;2022-08-19T00:21:57;10.77;;;9.15;;
11348;SDS011;5729;43.570;27.826;2022-08-19T00:24:23;11.85;;;8.60;;
11348;SDS011;5729;43.570;27.826;2022-08-19T00:26:50;9.35;;;8.38;;
11348;SDS011;5729;43.570;27.826;2022-08-19T00:29:17;9.82;;;7.85;;
11348;SDS011;5729;43.570;27.826;2022-08-19T00:31:44;11.98;;;8.95;;
11348;SDS011;5729;43.570;27.826;2022-08-19T00:34:12;9.32;;;8.38;;
11348;SDS011;5729;43.570;27.826;2022-08-19T00:36:39;13.10;;;9.57;;
11348;SDS011;5729;43.570;27.826;2022-08-19T00:39:06;11.45;;;8.52;;
11348;SDS011;5729;43.570;27.826;2022-08-19T00:41:32;11.43;;;8.43;;
11348;SDS011;5729;43.570;27.826;2022-08-19T00:46:26;8.88;;;7.97;;
11348;SDS011;5729;43.570;27.826;2022-08-19T00:48:52;12.25;;;8.70;;
11348;SDS011;5729;43.570;27.826;2022-08-19T00:51:19;11.02;;;9.02;;
11348;SDS011;5729;43.570;27.826;2022-08-19T00:53:44;10.68;;;8.55;;
11348;SDS011;5729;43.570;27.826;2022-08-19T00:56:11;10.82;;;8.75;;
11348;SDS011;5729;43.570;27.826;2022-08-19T00:58:37;10.05;;;8.32;;
11348;SDS011;5729;43.570;27.826;2022-08-19T01:01:03;10.18;;;9.13;;
11348;SDS011;5729;43.570;27.826;2022-08-19T01:03:30;12.52;;;8.60;;
11348;SDS011;5729;43.570;27.826;2022-08-19T01:05:55;11.18;;;8.80;;
11348;SDS011;5729;43.570;27.826;2022-08-19T01:08:21;12.05;;;8.93;;
11348;SDS011;5729;43.570;27.826;2022-08-19T01:10:48;10.45;;;8.45;;
11348;SDS011;5729;43.570;27.826;2022-08-19T01:13:18;14.32;;;9.23;;
11348;SDS011;5729;43.570;27.826;2022-08-19T01:15:48;10.73;;;9.10;;
11348;SDS011;5729;43.570;27.826;2022-08-19T01:18:18;11.23;;;9.32;;
11348;SDS011;5729;43.570;27.826;2022-08-19T01:20:45;13.57;;;9.10;;
11348;SDS011;5729;43.570;27.826;2022-08-19T01:23:11;12.05;;;9.38;;
11348;SDS011;5729;43.570;27.826;2022-08-19T01:25:43;11.50;;;9.05;;
11348;SDS011;5729;43.570;27.826;2022-08-19T01:28:18;10.35;;;8.88;;
11348;SDS011;5729;43.570;27.826;2022-08-19T01:30:46;9.90;;;8.73;;
11348;SDS011;5729;43.570;27.826;2022-08-19T01:33:12;9.43;;;8.10;;
11348;SDS011;5729;43.570;27.826;2022-08-19T01:35:38;13.07;;;8.60;;
11348;SDS011;5729;43.570;27.826;2022-08-19T01:38:05;10.30;;;9.25;;
11348;SDS011;5729;43.570;27.826;2022-08-19T01:40:33;11.80;;;9.07;;
11348;SDS011;5729;43.570;27.826;2022-08-19T01:43:00;13.63;;;9.15;;
11348;SDS011;5729;43.570;27.826;2022-08-19T01:45:28;10.15;;;9.07;;
11348;SDS011;5729;43.570;27.826;2022-08-19T01:47:56;14.63;;;9.55;;
11348;SDS011;5729;43.570;27.826;2022-08-19T01:50:23;14.82;;;9.75;;
11348;SDS011;5729;43.570;27.826;2022-08-19T01:52:49;12.40;;;9.27;;
11348;SDS011;5729;43.570;27.826;2022-08-19T01:55:17;10.32;;;9.07;;
11348;SDS011;5729;43.570;27.826;2022-08-19T01:57:46;11.52;;;9.52;;
11348;SDS011;5729;43.570;27.826;2022-08-19T02:00:18;11.07;;;9.52;;
11348;SDS011;5729;43.570;27.826;2022-08-19T02:02:45;13.27;;;9.60;;
11348;SDS011;5729;43.570;27.826;2022-08-19T02:05:11;10.32;;;9.32;;
11348;SDS011;5729;43.570;27.826;2022-08-19T02:07:38;15.93;;;9.90;;
11348;SDS011;5729;43.570;27.826;2022-08-19T02:10:06;12.38;;;10.18;;
11348;SDS011;5729;43.570;27.826;2022-08-19T02:12:34;13.80;;;9.90;;
11348;SDS011;5729;43.570;27.826;2022-08-19T02:15:00;13.20;;;10.15;;
11348;SDS011;5729;43.570;27.826;2022-08-19T02:17:27;16.65;;;9.57;;
11348;SDS011;5729;43.570;27.826;2022-08-19T02:19:54;15.23;;;9.77;;
11348;SDS011;5729;43.570;27.826;2022-08-19T02:22:20;13.27;;;9.13;;
11348;SDS011;5729;43.570;27.826;2022-08-19T02:24:46;14.63;;;9.88;;
11348;SDS011;5729;43.570;27.826;2022-08-19T02:27:13;14.60;;;9.77;;
11348;SDS011;5729;43.570;27.826;2022-08-19T02:29:38;11.18;;;8.77;;
11348;SDS011;5729;43.570;27.826;2022-08-19T02:32:04;10.60;;;9.05;;
11348;SDS011;5729;43.570;27.826;2022-08-19T02:34:29;13.60;;;9.68;;
11348;SDS011;5729;43.570;27.826;2022-08-19T02:36:55;12.55;;;9.77;;
11348;SDS011;5729;43.570;27.826;2022-08-19T02:39:20;10.48;;;9.40;;
11348;SDS011;5729;43.570;27.826;2022-08-19T02:41:46;10.20;;;9.25;;
11348;SDS011;5729;43.570;27.826;2022-08-19T02:44:11;11.40;;;9.30;;
11348;SDS011;5729;43.570;27.826;2022-08-19T02:46:37;14.63;;;9.88;;
11348;SDS011;5729;43.570;27.826;2022-08-19T02:49:04;11.85;;;9.30;;
11348;SDS011;5729;43.570;27.826;2022-08-19T02:51:35;12.75;;;9.60;;
11348;SDS011;5729;43.570;27.826;2022-08-19T02:54:03;11.80;;;9.75;;
11348;SDS011;5729;43.570;27.826;2022-08-19T02:56:31;10.93;;;9.80;;
11348;SDS011;5729;43.570;27.826;2022-08-19T02:58:57;13.48;;;11.50;;
11348;SDS011;5729;43.570;27.826;2022-08-19T03:01:25;13.65;;;9.32;;
11348;SDS011;5729;43.570;27.826;2022-08-19T03:03:53;13.13;;;9.60;;
11348;SDS011;5729;43.570;27.826;2022-08-19T03:06:19;14.65;;;10.25;;
11348;SDS011;5729;43.570;27.826;2022-08-19T03:08:46;18.50;;;10.55;;
11348;SDS011;5729;43.570;27.826;2022-08-19T03:11:14;10.82;;;8.95;;
11348;SDS011;5729;43.570;27.826;2022-08-19T03:13:42;13.75;;;10.02;;
11348;SDS011;5729;43.570;27.826;2022-08-19T03:16:08;11.13;;;9.93;;
11348;SDS011;5729;43.570;27.826;2022-08-19T03:18:34;16.40;;;10.05;;
11348;SDS011;5729;43.570;27.826;2022-08-19T03:21:00;14.27;;;9.45;;
11348;SDS011;5729;43.570;27.826;2022-08-19T03:23:25;14.07;;;9.68;;
11348;SDS011;5729;43.570;27.826;2022-08-19T03:25:52;10.70;;;9.27;;
11348;SDS011;5729;43.570;27.826;2022-08-19T03:28:19;13.68;;;9.55;;
11348;SDS011;5729;43.570;27.826;2022-08-19T03:33:43;14.00;;;9.57;;
11348;SDS011;5729;43.570;27.826;2022-08-19T03:36:11;12.82;;;10.15;;
11348;SDS011;5729;43.570;27.826;2022-08-19T03:38:40;16.92;;;9.60;;
11348;SDS011;5729;43.570;27.826;2022-08-19T03:41:12;12.38;;;9.63;;
11348;SDS011;5729;43.570;27.826;2022-08-19T03:43:43;11.02;;;9.93;;
11348;SDS011;5729;43.570;27.826;2022-08-19T03:46:13;12.23;;;10.57;;
11348;SDS011;5729;43.570;27.826;2022-08-19T03:48:42;13.90;;;9.57;;
11348;SDS011;5729;43.570;27.826;2022-08-19T03:51:18;15.45;;;9.68;;
11348;SDS011;5729;43.570;27.826;2022-08-19T03:53:46;13.13;;;9.90;;
11348;SDS011;5729;43.570;27.826;2022-08-19T03:56:12;12.95;;;9.77;;
11348;SDS011;5729;43.570;27.826;2022-08-19T03:58:38;12.52;;;9.75;;
11348;SDS011;5729;43.570;27.826;2022-08-19T04:01:06;12.25;;;10.27;;
11348;SDS011;5729;43.570;27.826;2022-08-19T04:03:33;17.40;;;10.00;;
11348;SDS011;5729;43.570;27.826;2022-08-19T04:06:09;15.80;;;10.23;;
11348;SDS011;5729;43.570;27.826;2022-08-19T04:08:39;19.30;;;11.48;;
11348;SDS011;5729;43.570;27.826;2022-08-19T04:11:10;11.48;;;9.95;;
11348;SDS011;5729;43.570;27.826;2022-08-19T04:13:37;13.32;;;10.38;;
11348;SDS011;5729;43.570;27.826;2022-08-19T04:16:03;10.63;;;9.15;;
11348;SDS011;5729;43.570;27.826;2022-08-19T04:18:30;12.23;;;10.15;;
11348;SDS011;5729;43.570;27.826;2022-08-19T04:20:56;14.55;;;9.77;;
11348;SDS011;5729;43.570;27.826;2022-08-19T04:23:22;14.15;;;9.88;;
11348;SDS011;5729;43.570;27.826;2022-08-19T04:25:48;10.85;;;9.73;;
11348;SDS011;5729;43.570;27.826;2022-08-19T04:28:14;10.32;;;9.30;;
11348;SDS011;5729;43.570;27.826;2022-08-19T04:33:06;12.50;;;9.68;;
11348;SDS011;5729;43.570;27.826;2022-08-19T04:35:36;11.50;;;9.77;;
11348;SDS011;5729;43.570;27.826;2022-08-19T04:38:03;13.25;;;9.30;;
11348;SDS011;5729;43.570;27.826;2022-08-19T04:40:30;12.23;;;8.90;;
11348;SDS011;5729;43.570;27.826;2022-08-19T04:43:14;10.95;;;9.55;;
11348;SDS011;5729;43.570;27.826;2022-08-19T04:45:41;13.90;;;10.48;;
11348;SDS011;5729;43.570;27.826;2022-08-19T04:48:10;11.68;;;10.48;;
11348;SDS011;5729;43.570;27.826;2022-08-19T04:50:39;13.52;;;10.02;;
11348;SDS011;5729;43.570;27.826;2022-08-19T04:53:06;16.75;;;9.98;;
11348;SDS011;5729;43.570;27.826;2022-08-19T04:55:32;12.40;;;9.60;;
11348;SDS011;5729;43.570;27.826;2022-08-19T04:57:58;16.67;;;9.95;;
11348;SDS011;5729;43.570;27.826;2022-08-19T05:00:24;12.95;;;9.65;;
11348;SDS011;5729;43.570;27.826;2022-08-19T05:02:50;10.55;;;9.48;;
11348;SDS011;5729;43.570;27.826;2022-08-19T05:05:15;12.60;;;9.40;;
11348;SDS011;5729;43.570;27.826;2022-08-19T05:07:42;13.80;;;9.52;;
11348;SDS011;5729;43.570;27.826;2022-08-19T05:10:07;11.82;;;9.65;;
11348;SDS011;5729;43.570;27.826;2022-08-19T05:12:33;12.57;;;9.23;;
11348;SDS011;5729;43.570;27.826;2022-08-19T05:14:59;13.23;;;9.73;;
11348;SDS011;5729;43.570;27.826;2022-08-19T05:17:25;13.88;;;8.95;;
11348;SDS011;5729;43.570;27.826;2022-08-19T05:19:52;11.90;;;9.60;;
11348;SDS011;5729;43.570;27.826;2022-08-19T05:22:36;11.85;;;9.35;;
11348;SDS011;5729;43.570;27.826;2022-08-19T05:25:04;11.45;;;9.02;;
11348;SDS011;5729;43.570;27.826;2022-08-19T05:27:31;14.73;;;8.85;;
11348;SDS011;5729;43.570;27.826;2022-08-19T05:29:57;15.00;;;9.75;;
11348;SDS011;5729;43.570;27.826;2022-08-19T05:32:23;12.57;;;8.80;;
11348;SDS011;5729;43.570;27.826;2022-08-19T05:34:48;9.95;;;8.75;;
11348;SDS011;5729;43.570;27.826;2022-08-19T05:37:14;11.65;;;8.90;;
11348;SDS011;5729;43.570;27.826;2022-08-19T05:39:39;11.25;;;9.27;;
11348;SDS011;5729;43.570;27.826;2022-08-19T05:42:09;14.38;;;9.40;;
11348;SDS011;5729;43.570;27.826;2022-08-19T05:44:40;14.35;;;9.02;;
11348;SDS011;5729;43.570;27.826;2022-08-19T05:47:12;13.57;;;9.52;;
11348;SDS011;5729;43.570;27.826;2022-08-19T05:49:39;14.63;;;8.80;;
11348;SDS011;5729;43.570;27.826;2022-08-19T05:52:08;11.98;;;8.90;;
11348;SDS011;5729;43.570;27.826;2022-08-19T05:54:37;11.40;;;8.93;;
11348;SDS011;5729;43.570;27.826;2022-08-19T05:57:06;9.85;;;8.65;;
11348;SDS011;5729;43.570;27.826;2022-08-19T05:59:32;11.55;;;9.57;;
11348;SDS011;5729;43.570;27.826;2022-08-19T06:02:00;12.88;;;8.82;;
11348;SDS011;5729;43.570;27.826;2022-08-19T06:04:26;11.70;;;9.25;;
11348;SDS011;5729;43.570;27.826;2022-08-19T06:06:52;13.20;;;9.00;;
11348;SDS011;5729;43.570;27.826;2022-08-19T06:09:18;14.02;;;8.65;;
11348;SDS011;5729;43.570;27.826;2022-08-19T06:11:46;11.85;;;8.68;;
11348;SDS011;5729;43.570;27.826;2022-08-19T06:14:15;11.32;;;8.23;;
11348;SDS011;5729;43.570;27.826;2022-08-19T06:16:43;11.77;;;8.75;;
11348;SDS011;5729;43.570;27.826;2022-08-19T06:19:11;9.13;;;8.23;;
11348;SDS011;5729;43.570;27.826;2022-08-19T06:21:40;10.18;;;8.77;;
11348;SDS011;5729;43.570;27.826;2022-08-19T06:24:07;13.60;;;8.40;;
11348;SDS011;5729;43.570;27.826;2022-08-19T06:26:36;9.85;;;8.52;;
11348;SDS011;5729;43.570;27.826;2022-08-19T06:29:04;11.13;;;8.57;;
11348;SDS011;5729;43.570;27.826;2022-08-19T06:31:31;15.02;;;8.30;;
11348;SDS011;5729;43.570;27.826;2022-08-19T06:33:59;15.32;;;8.43;;
11348;SDS011;5729;43.570;27.826;2022-08-19T06:36:28;13.63;;;8.40;;
11348;SDS011;5729;43.570;27.826;2022-08-19T06:38:59;13.00;;;8.00;;
11348;SDS011;5729;43.570;27.826;2022-08-19T06:41:27;9.25;;;7.90;;
11348;SDS011;5729;43.570;27.826;2022-08-19T06:43:54;14.00;;;8.32;;
11348;SDS011;5729;43.570;27.826;2022-08-19T06:46:20;11.07;;;8.40;;
11348;SDS011;5729;43.570;27.826;2022-08-19T06:48:46;17.40;;;8.45;;
11348;SDS011;5729;43.570;27.826;2022-08-19T06:51:13;13.57;;;8.60;;
11348;SDS011;5729;43.570;27.826;2022-08-19T06:53:43;10.57;;;8.10;;
11348;SDS011;5729;43.570;27.826;2022-08-19T06:56:11;12.10;;;8.07;;
11348;SDS011;5729;43.570;27.826;2022-08-19T06:58:38;11.35;;;7.72;;
11348;SDS011;5729;43.570;27.826;2022-08-19T07:01:04;11.98;;;7.88;;
11348;SDS011;5729;43.570;27.826;2022-08-19T07:03:30;13.35;;;7.70;;
11348;SDS011;5729;43.570;27.826;2022-08-19T07:06:01;11.15;;;8.30;;
11348;SDS011;5729;43.570;27.826;2022-08-19T07:08:28;15.27;;;8.27;;
11348;SDS011;5729;43.570;27.826;2022-08-19T07:10:54;10.27;;;7.95;;
11348;SDS011;5729;43.570;27.826;2022-08-19T07:13:19;9.02;;;7.90;;
11348;SDS011;5729;43.570;27.826;2022-08-19T07:15:46;9.18;;;7.30;;
11348;SDS011;5729;43.570;27.826;2022-08-19T07:18:12;14.52;;;8.32;;
11348;SDS011;5729;43.570;27.826;2022-08-19T07:20:39;12.63;;;7.63;;
11348;SDS011;5729;43.570;27.826;2022-08-19T07:23:04;12.10;;;7.80;;
11348;SDS011;5729;43.570;27.826;2022-08-19T07:25:30;12.82;;;7.70;;
11348;SDS011;5729;43.570;27.826;2022-08-19T07:27:55;14.05;;;7.53;;
11348;SDS011;5729;43.570;27.826;2022-08-19T07:30:21;11.80;;;7.72;;
11348;SDS011;5729;43.570;27.826;2022-08-19T07:32:48;11.65;;;7.45;;
11348;SDS011;5729;43.570;27.826;2022-08-19T07:35:15;9.43;;;7.82;;
11348;SDS011;5729;43.570;27.826;2022-08-19T07:37:44;11.52;;;7.13;;
11348;SDS011;5729;43.570;27.826;2022-08-19T07:40:09;9.02;;;7.10;;
11348;SDS011;5729;43.570;27.826;2022-08-19T07:42:36;10.95;;;6.65;;
11348;SDS011;5729;43.570;27.826;2022-08-19T07:45:03;11.85;;;6.90;;
11348;SDS011;5729;43.570;27.826;2022-08-19T07:47:30;8.32;;;6.88;;
11348;SDS011;5729;43.570;27.826;2022-08-19T07:49:55;16.75;;;7.30;;
11348;SDS011;5729;43.570;27.826;2022-08-19T07:52:21;11.90;;;7.35;;
11348;SDS011;5729;43.570;27.826;2022-08-19T07:54:47;8.25;;;7.15;;
11348;SDS011;5729;43.570;27.826;2022-08-19T07:57:14;9.82;;;7.55;;
11348;SDS011;5729;43.570;27.826;2022-08-19T07:59:40;12.57;;;7.25;;
11348;SDS011;5729;43.570;27.826;2022-08-19T08:02:06;8.82;;;6.80;;
11348;SDS011;5729;43.570;27.826;2022-08-19T08:04:32;15.23;;;8.00;;
11348;SDS011;5729;43.570;27.826;2022-08-19T08:07:16;12.15;;;6.85;;
11348;SDS011;5729;43.570;27.826;2022-08-19T08:10:00;10.88;;;6.53;;
11348;SDS011;5729;43.570;27.826;2022-08-19T08:12:28;10.55;;;7.22;;
11348;SDS011;5729;43.570;27.826;2022-08-19T08:15:00;11.25;;;7.30;;
11348;SDS011;5729;43.570;27.826;2022-08-19T08:17:29;10.35;;;6.80;;
11348;SDS011;5729;43.570;27.826;2022-08-19T08:19:57;12.18;;;6.47;;
11348;SDS011;5729;43.570;27.826;2022-08-19T08:22:23;15.52;;;6.53;;
11348;SDS011;5729;43.570;27.826;2022-08-19T08:25:12;9.27;;;6.25;;
11348;SDS011;5729;43.570;27.826;2022-08-19T08:27:41;12.23;;;6.22;;
11348;SDS011;5729;43.570;27.826;2022-08-19T08:30:09;10.70;;;5.97;;
11348;SDS011;5729;43.570;27.826;2022-08-19T08:32:37;13.77;;;6.60;;
11348;SDS011;5729;43.570;27.826;2022-08-19T08:35:07;15.75;;;6.32;;
11348;SDS011;5729;43.570;27.826;2022-08-19T08:37:35;9.85;;;6.13;;
11348;SDS011;5729;43.570;27.826;2022-08-19T08:40:06;6.82;;;5.53;;
11348;SDS011;5729;43.570;27.826;2022-08-19T08:42:47;12.50;;;5.72;;
11348;SDS011;5729;43.570;27.826;2022-08-19T08:45:19;13.65;;;6.05;;
11348;SDS011;5729;43.570;27.826;2022-08-19T08:47:48;10.63;;;6.20;;
11348;SDS011;5729;43.570;27.826;2022-08-19T08:50:21;10.82;;;6.10;;
11348;SDS011;5729;43.570;27.826;2022-08-19T08:52:55;16.58;;;5.75;;
11348;SDS011;5729;43.570;27.826;2022-08-19T08:55:26;8.18;;;5.70;;
11348;SDS011;5729;43.570;27.826;2022-08-19T08:58:04;7.18;;;5.47;;
11348;SDS011;5729;43.570;27.826;2022-08-19T09:00:36;12.05;;;5.80;;
11348;SDS011;5729;43.570;27.826;2022-08-19T09:03:03;9.43;;;5.85;;
11348;SDS011;5729;43.570;27.826;2022-08-19T09:05:55;11.70;;;6.03;;
11348;SDS011;5729;43.570;27.826;2022-08-19T09:09:14;11.98;;;5.85;;
11348;SDS011;5729;43.570;27.826;2022-08-19T09:11:24;9.18;;;5.20;;
11348;SDS011;5729;43.570;27.826;2022-08-19T09:17:26;9.35;;;5.35;;
11348;SDS011;5729;43.570;27.826;2022-08-19T09:22:33;7.90;;;5.50;;
11348;SDS011;5729;43.570;27.826;2022-08-19T09:25:00;8.85;;;5.65;;
11348;SDS011;5729;43.570;27.826;2022-08-19T09:27:26;14.18;;;5.75;;
11348;SDS011;5729;43.570;27.826;2022-08-19T09:29:52;7.53;;;5.05;;
11348;SDS011;5729;43.570;27.826;2022-08-19T09:32:18;9.90;;;5.00;;
11348;SDS011;5729;43.570;27.826;2022-08-19T09:34:45;11.30;;;5.05;;
11348;SDS011;5729;43.570;27.826;2022-08-19T09:37:10;11.63;;;5.40;;
11348;SDS011;5729;43.570;27.826;2022-08-19T09:39:37;14.30;;;5.72;;
11348;SDS011;5729;43.570;27.826;2022-08-19T09:42:04;15.30;;;5.65;;
11348;SDS011;5729;43.570;27.826;2022-08-19T09:44:30;10.18;;;5.25;;
11348;SDS011;5729;43.570;27.826;2022-08-19T09:46:55;9.90;;;5.00;;
11348;SDS011;5729;43.570;27.826;2022-08-19T09:49:21;14.65;;;5.53;;
11348;SDS011;5729;43.570;27.826;2022-08-19T09:51:50;11.45;;;5.40;;
11348;SDS011;5729;43.570;27.826;2022-08-19T09:54:16;10.63;;;5.15;;
11348;SDS011;5729;43.570;27.826;2022-08-19T09:56:43;10.43;;;5.13;;
11348;SDS011;5729;43.570;27.826;2022-08-19T09:59:09;11.65;;;5.13;;
11348;SDS011;5729;43.570;27.826;2022-08-19T10:01:36;10.18;;;4.88;;
11348;SDS011;5729;43.570;27.826;2022-08-19T10:04:02;10.65;;;5.05;;
11348;SDS011;5729;43.570;27.826;2022-08-19T10:06:33;11.43;;;4.75;;
11348;SDS011;5729;43.570;27.826;2022-08-19T10:08:59;17.63;;;5.15;;
11348;SDS011;5729;43.570;27.826;2022-08-19T10:11:25;6.75;;;4.82;;
11348;SDS011;5729;43.570;27.826;2022-08-19T10:13:51;9.90;;;5.35;;
11348;SDS011;5729;43.570;27.826;2022-08-19T10:16:18;9.80;;;4.85;;
11348;SDS011;5729;43.570;27.826;2022-08-19T10:18:47;8.95;;;4.97;;
11348;SDS011;5729;43.570;27.826;2022-08-19T10:21:18;13.13;;;4.78;;
11348;SDS011;5729;43.570;27.826;2022-08-19T10:23:44;10.00;;;4.88;;
11348;SDS011;5729;43.570;27.826;2022-08-19T10:26:17;11.45;;;4.97;;
11348;SDS011;5729;43.570;27.826;2022-08-19T10:28:45;7.10;;;4.60;;
11348;SDS011;5729;43.570;27.826;2022-08-19T10:31:12;13.13;;;4.50;;
11348;SDS011;5729;43.570;27.826;2022-08-19T10:33:40;13.15;;;4.60;;
11348;SDS011;5729;43.570;27.826;2022-08-19T10:36:11;16.73;;;5.15;;
11348;SDS011;5729;43.570;27.826;2022-08-19T10:38:49;13.50;;;4.68;;
11348;SDS011;5729;43.570;27.826;2022-08-19T10:41:18;7.88;;;4.63;;
11348;SDS011;5729;43.570;27.826;2022-08-19T10:43:50;11.15;;;5.10;;
11348;SDS011;5729;43.570;27.826;2022-08-19T10:46:17;7.05;;;4.68;;
11348;SDS011;5729;43.570;27.826;2022-08-19T10:48:43;10.77;;;4.25;;
11348;SDS011;5729;43.570;27.826;2022-08-19T10:51:09;9.07;;;5.18;;
11348;SDS011;5729;43.570;27.826;2022-08-19T10:53:54;8.80;;;5.03;;
11348;SDS011;5729;43.570;27.826;2022-08-19T10:56:21;10.65;;;4.90;;
11348;SDS011;5729;43.570;27.826;2022-08-19T10:59:05;9.48;;;4.60;;
11348;SDS011;5729;43.570;27.826;2022-08-19T11:01:31;7.68;;;4.97;;
11348;SDS011;5729;43.570;27.826;2022-08-19T11:03:59;11.40;;;4.75;;
11348;SDS011;5729;43.570;27.826;2022-08-19T11:06:26;12.93;;;5.13;;
11348;SDS011;5729;43.570;27.826;2022-08-19T11:08:52;10.10;;;4.65;;
11348;SDS011;5729;43.570;27.826;2022-08-19T11:11:19;10.75;;;4.78;;
11348;SDS011;5729;43.570;27.826;2022-08-19T11:13:46;12.70;;;4.55;;
11348;SDS011;5729;43.570;27.826;2022-08-19T11:16:13;16.08;;;4.65;;
11348;SDS011;5729;43.570;27.826;2022-08-19T11:18:43;11.77;;;5.35;;
11348;SDS011;5729;43.570;27.826;2022-08-19T11:21:13;12.98;;;4.95;;
11348;SDS011;5729;43.570;27.826;2022-08-19T11:23:42;9.73;;;4.63;;
11348;SDS011;5729;43.570;27.826;2022-08-19T11:26:08;13.30;;;4.75;;
11348;SDS011;5729;43.570;27.826;2022-08-19T11:28:35;11.52;;;4.43;;
11348;SDS011;5729;43.570;27.826;2022-08-19T11:31:01;10.85;;;4.28;;
11348;SDS011;5729;43.570;27.826;2022-08-19T11:33:28;8.32;;;4.88;;
11348;SDS011;5729;43.570;27.826;2022-08-19T11:35:56;9.52;;;4.32;;
11348;SDS011;5729;43.570;27.826;2022-08-19T11:38:24;12.38;;;4.68;;
11348;SDS011;5729;43.570;27.826;2022-08-19T11:40:54;7.93;;;4.40;;
11348;SDS011;5729;43.570;27.826;2022-08-19T11:43:23;10.02;;;4.68;;
11348;SDS011;5729;43.570;27.826;2022-08-19T11:45:49;12.40;;;4.53;;
11348;SDS011;5729;43.570;27.826;2022-08-19T11:48:15;11.02;;;5.15;;
11348;SDS011;5729;43.570;27.826;2022-08-19T11:50:40;12.48;;;4.97;;
11348;SDS011;5729;43.570;27.826;2022-08-19T11:53:07;9.55;;;4.47;;
11348;SDS011;5729;43.570;27.826;2022-08-19T11:55:32;14.00;;;4.45;;
11348;SDS011;5729;43.570;27.826;2022-08-19T11:58:04;8.57;;;4.50;;
11348;SDS011;5729;43.570;27.826;2022-08-19T12:00:31;8.52;;;4.47;;
11348;SDS011;5729;43.570;27.826;2022-08-19T12:02:59;7.75;;;4.57;;
11348;SDS011;5729;43.570;27.826;2022-08-19T12:05:24;11.50;;;4.75;;
11348;SDS011;5729;43.570;27.826;2022-08-19T12:07:50;10.32;;;4.32;;
11348;SDS011;5729;43.570;27.826;2022-08-19T12:10:15;18.67;;;5.28;;
11348;SDS011;5729;43.570;27.826;2022-08-19T12:12:41;6.65;;;4.15;;
11348;SDS011;5729;43.570;27.826;2022-08-19T12:15:08;7.50;;;4.45;;
11348;SDS011;5729;43.570;27.826;2022-08-19T12:17:35;12.70;;;4.47;;
11348;SDS011;5729;43.570;27.826;2022-08-19T12:20:01;9.57;;;4.32;;
11348;SDS011;5729;43.570;27.826;2022-08-19T12:22:27;7.30;;;3.63;;
11348;SDS011;5729;43.570;27.826;2022-08-19T12:24:53;12.60;;;4.18;;
11348;SDS011;5729;43.570;27.826;2022-08-19T12:27:19;9.73;;;4.35;;
11348;SDS011;5729;43.570;27.826;2022-08-19T12:29:45;7.25;;;4.07;;
11348;SDS011;5729;43.570;27.826;2022-08-19T12:32:11;10.50;;;4.70;;
11348;SDS011;5729;43.570;27.826;2022-08-19T12:34:36;8.20;;;5.03;;
11348;SDS011;5729;43.570;27.826;2022-08-19T12:37:03;10.13;;;4.65;;
11348;SDS011;5729;43.570;27.826;2022-08-19T12:39:30;9.25;;;4.20;;
11348;SDS011;5729;43.570;27.826;2022-08-19T12:41:58;8.88;;;4.47;;
11348;SDS011;5729;43.570;27.826;2022-08-19T12:44:24;6.40;;;4.47;;
11348;SDS011;5729;43.570;27.826;2022-08-19T12:46:50;13.82;;;4.65;;
11348;SDS011;5729;43.570;27.826;2022-08-19T12:49:15;11.68;;;4.57;;
11348;SDS011;5729;43.570;27.826;2022-08-19T12:51:41;9.52;;;4.28;;
11348;SDS011;5729;43.570;27.826;2022-08-19T12:54:06;10.00;;;4.50;;
11348;SDS011;5729;43.570;27.826;2022-08-19T12:56:32;9.82;;;4.60;;
11348;SDS011;5729;43.570;27.826;2022-08-19T12:59:00;12.40;;;4.10;;
11348;SDS011;5729;43.570;27.826;2022-08-19T13:01:27;8.23;;;4.00;;
11348;SDS011;5729;43.570;27.826;2022-08-19T13:03:55;11.77;;;4.57;;
11348;SDS011;5729;43.570;27.826;2022-08-19T13:06:20;9.00;;;4.50;;
11348;SDS011;5729;43.570;27.826;2022-08-19T13:08:46;8.63;;;4.45;;
11348;SDS011;5729;43.570;27.826;2022-08-19T13:11:13;15.57;;;4.68;;
11348;SDS011;5729;43.570;27.826;2022-08-19T13:13:43;11.45;;;3.90;;
11348;SDS011;5729;43.570;27.826;2022-08-19T13:16:10;9.48;;;4.32;;
11348;SDS011;5729;43.570;27.826;2022-08-19T13:18:38;7.13;;;4.22;;
11348;SDS011;5729;43.570;27.826;2022-08-19T13:21:05;14.52;;;4.90;;
11348;SDS011;5729;43.570;27.826;2022-08-19T13:23:32;8.80;;;4.47;;
11348;SDS011;5729;43.570;27.826;2022-08-19T13:26:00;8.43;;;4.15;;
11348;SDS011;5729;43.570;27.826;2022-08-19T13:28:28;17.55;;;5.13;;
11348;SDS011;5729;43.570;27.826;2022-08-19T13:31:17;7.53;;;4.43;;
11348;SDS011;5729;43.570;27.826;2022-08-19T13:34:03;14.13;;;5.20;;
11348;SDS011;5729;43.570;27.826;2022-08-19T13:36:31;12.40;;;4.60;;
11348;SDS011;5729;43.570;27.826;2022-08-19T13:38:57;8.77;;;4.38;;
11348;SDS011;5729;43.570;27.826;2022-08-19T13:41:23;7.85;;;4.53;;
11348;SDS011;5729;43.570;27.826;2022-08-19T13:43:48;10.82;;;4.03;;
11348;SDS011;5729;43.570;27.826;2022-08-19T13:46:14;8.15;;;4.50;;
11348;SDS011;5729;43.570;27.826;2022-08-19T13:48:40;7.30;;;5.07;;
11348;SDS011;5729;43.570;27.826;2022-08-19T13:51:06;8.50;;;4.40;;
11348;SDS011;5729;43.570;27.826;2022-08-19T13:53:35;10.20;;;4.72;;
11348;SDS011;5729;43.570;27.826;2022-08-19T13:56:05;12.50;;;4.47;;
11348;SDS011;5729;43.570;27.826;2022-08-19T13:58:32;7.60;;;4.78;;
11348;SDS011;5729;43.570;27.826;2022-08-19T14:00:57;8.57;;;4.43;;
11348;SDS011;5729;43.570;27.826;2022-08-19T14:03:24;11.45;;;4.65;;
11348;SDS011;5729;43.570;27.826;2022-08-19T14:05:50;11.88;;;4.35;;
11348;SDS011;5729;43.570;27.826;2022-08-19T14:08:16;8.10;;;3.70;;
11348;SDS011;5729;43.570;27.826;2022-08-19T14:10:42;13.93;;;4.85;;
11348;SDS011;5729;43.570;27.826;2022-08-19T14:13:10;12.60;;;4.50;;
11348;SDS011;5729;43.570;27.826;2022-08-19T14:15:38;9.57;;;4.55;;
11348;SDS011;5729;43.570;27.826;2022-08-19T14:18:04;7.43;;;4.32;;
11348;SDS011;5729;43.570;27.826;2022-08-19T14:20:30;6.32;;;4.43;;
11348;SDS011;5729;43.570;27.826;2022-08-19T14:22:55;5.38;;;4.30;;
11348;SDS011;5729;43.570;27.826;2022-08-19T14:25:22;10.40;;;4.78;;
11348;SDS011;5729;43.570;27.826;2022-08-19T14:27:51;8.88;;;5.30;;
11348;SDS011;5729;43.570;27.826;2022-08-19T14:30:18;11.15;;;6.45;;
11348;SDS011;5729;43.570;27.826;2022-08-19T14:32:50;12.30;;;5.80;;
11348;SDS011;5729;43.570;27.826;2022-08-19T14:35:16;16.08;;;5.20;;
11348;SDS011;5729;43.570;27.826;2022-08-19T14:37:43;11.05;;;5.18;;
11348;SDS011;5729;43.570;27.826;2022-08-19T14:40:10;10.43;;;5.22;;
11348;SDS011;5729;43.570;27.826;2022-08-19T14:42:37;12.85;;;5.30;;
11348;SDS011;5729;43.570;27.826;2022-08-19T14:45:03;12.57;;;5.50;;
11348;SDS011;5729;43.570;27.826;2022-08-19T14:47:30;10.35;;;6.03;;
11348;SDS011;5729;43.570;27.826;2022-08-19T14:49:55;11.50;;;5.00;;
11348;SDS011;5729;43.570;27.826;2022-08-19T14:52:21;8.68;;;5.20;;
11348;SDS011;5729;43.570;27.826;2022-08-19T14:54:46;11.95;;;5.53;;
11348;SDS011;5729;43.570;27.826;2022-08-19T14:57:12;8.90;;;5.60;;